Terminal Aerodrome Forecast
Issued by NWS

Home | Current Version | Previous Version | Text Only | Print | Product List | Glossary On
Versions: 1 2 3 4 5 6 7 8 9 10 11 12 13 14 15 16 17 18 19 20 21
000
FTUS42 KTAE 311738
TAFABY
TAF
KABY 311738Z 3118/0118 VRB03KT P6SM BKN025
     FM312000 20006KT P6SM VCTS SCT030CB BKN045
      TEMPO 3120/3124 VRB15G25KT 3SM TSRA BR BKN030CB
     FM010000 19003KT P6SM SCT050 BKN100
      TEMPO 0109/0113 3SM BR SCT002
     FM011600 VRB03KT P6SM VCTS SCT025CB BKN040=

USA.gov is the U.S. government's official web portal to all federal, state and local government web resources and services.